createdAt,value
2022-12-11T00:00:58.164Z,1009.53
2022-12-11T00:01:58.201Z,1009.52
2022-12-11T00:02:58.181Z,1009.55
2022-12-11T00:03:58.133Z,1009.52
2022-12-11T00:04:58.119Z,1009.48
2022-12-11T00:05:58.147Z,1009.55
2022-12-11T00:06:58.111Z,1009.52
2022-12-11T00:07:58.132Z,1009.54
2022-12-11T00:08:58.070Z,1009.53
2022-12-11T00:09:58.064Z,1009.54
2022-12-11T00:10:58.058Z,1009.52
2022-12-11T00:11:58.067Z,1009.52
2022-12-11T00:12:58.011Z,1009.49
2022-12-11T00:13:58.077Z,1009.55
2022-12-11T00:14:57.981Z,1009.55
2022-12-11T00:15:57.979Z,1009.56
2022-12-11T00:16:58.052Z,1009.45
2022-12-11T00:17:57.995Z,1009.57
2022-12-11T00:18:57.955Z,1009.51
2022-12-11T00:19:57.947Z,1009.48
2022-12-11T00:20:57.920Z,1009.54
2022-12-11T00:21:57.907Z,1009.61
2022-12-11T00:22:57.896Z,1009.57
2022-12-11T00:23:57.880Z,1009.54
2022-12-11T00:24:57.872Z,1009.54
2022-12-11T00:25:57.883Z,1009.53
2022-12-11T00:26:57.864Z,1009.55
2022-12-11T00:27:57.871Z,1009.59
2022-12-11T00:28:57.813Z,1009.50
2022-12-11T00:29:57.816Z,1009.53
2022-12-11T00:30:57.812Z,1009.47
2022-12-11T00:31:57.872Z,1009.56
2022-12-11T00:32:57.792Z,1009.52
2022-12-11T00:33:57.767Z,1009.52
2022-12-11T00:34:57.780Z,1009.52
2022-12-11T00:35:57.763Z,1009.55
2022-12-11T00:36:57.738Z,1009.46
2022-12-11T00:37:57.733Z,1009.53
2022-12-11T00:38:57.686Z,1009.48
2022-12-11T00:39:57.704Z,1009.50
2022-12-11T00:40:57.652Z,1009.59
2022-12-11T00:41:57.689Z,1009.54
2022-12-11T00:42:57.670Z,1009.52
2022-12-11T00:43:57.671Z,1009.52
2022-12-11T00:44:57.610Z,1009.50
2022-12-11T00:45:57.711Z,1009.52
2022-12-11T00:46:57.620Z,1009.47
2022-12-11T00:47:57.618Z,1009.48
2022-12-11T00:48:57.550Z,1009.50
2022-12-11T00:49:57.563Z,1009.45
2022-12-11T00:50:57.536Z,1009.46
2022-12-11T00:51:57.534Z,1009.50
2022-12-11T00:52:57.511Z,1009.43
2022-12-11T00:53:57.548Z,1009.44
2022-12-11T00:54:57.505Z,1009.45
2022-12-11T00:55:57.480Z,1009.42
2022-12-11T00:56:57.477Z,1009.44
2022-12-11T00:57:57.468Z,1009.41
2022-12-11T00:58:57.450Z,1009.36
2022-12-11T00:59:57.465Z,1009.43
2022-12-11T01:00:57.456Z,1009.39
2022-12-11T01:01:57.435Z,1009.37
2022-12-11T01:02:57.452Z,1009.40
2022-12-11T01:03:57.376Z,1009.43
2022-12-11T01:04:57.378Z,1009.42
2022-12-11T01:05:57.367Z,1009.43
2022-12-11T01:06:57.337Z,1009.45
2022-12-11T01:07:57.404Z,1009.35
2022-12-11T01:08:57.323Z,1009.41
2022-12-11T01:09:57.332Z,1009.41
2022-12-11T01:10:57.348Z,1009.42
2022-12-11T01:11:57.332Z,1009.41
2022-12-11T01:12:57.291Z,1009.43
2022-12-11T01:13:57.255Z,1009.49
2022-12-11T01:14:57.230Z,1009.47
2022-12-11T01:15:57.931Z,1009.42
2022-12-11T01:16:57.294Z,1009.49
2022-12-11T01:17:57.203Z,1009.49
2022-12-11T01:18:57.229Z,1009.48
2022-12-11T01:19:57.185Z,1009.50
2022-12-11T01:20:57.899Z,1009.54
2022-12-11T01:21:57.180Z,1009.57
2022-12-11T01:22:57.169Z,1009.55
2022-12-11T01:23:57.172Z,1009.49
2022-12-11T01:24:57.114Z,1009.57
2022-12-11T01:25:57.129Z,1009.52
2022-12-11T01:26:57.113Z,1009.58
2022-12-11T01:27:58.040Z,1009.52
2022-12-11T01:28:57.099Z,1009.52
2022-12-11T01:29:57.079Z,1009.63
2022-12-11T01:30:57.118Z,1009.61
2022-12-11T01:31:57.020Z,1009.53
2022-12-11T01:32:56.993Z,1009.52
2022-12-11T01:33:57.037Z,1009.51
2022-12-11T01:34:57.096Z,1009.45
2022-12-11T01:35:56.973Z,1009.48
2022-12-11T01:36:56.965Z,1009.49
2022-12-11T01:37:57.674Z,1009.47
2022-12-11T01:38:56.937Z,1009.44
2022-12-11T01:39:56.951Z,1009.49
2022-12-11T01:40:56.972Z,1009.47
2022-12-11T01:41:56.931Z,1009.47
2022-12-11T01:42:56.876Z,1009.42
2022-12-11T01:43:56.921Z,1009.42
2022-12-11T01:44:56.873Z,1009.42
2022-12-11T01:45:56.937Z,1009.49
2022-12-11T01:46:56.844Z,1009.43
2022-12-11T01:47:56.866Z,1009.44
2022-12-11T01:48:56.861Z,1009.43
2022-12-11T01:49:56.797Z,1009.40
2022-12-11T01:50:56.831Z,1009.41
2022-12-11T01:51:56.778Z,1009.40
2022-12-11T01:52:56.742Z,1009.49
2022-12-11T01:53:56.755Z,1009.47
2022-12-11T01:54:56.761Z,1009.38
2022-12-11T01:55:56.723Z,1009.39
2022-12-11T01:56:56.839Z,1009.31
2022-12-11T01:57:56.735Z,1009.39
2022-12-11T01:58:56.673Z,1009.36
2022-12-11T01:59:56.662Z,1009.41
2022-12-11T02:00:56.758Z,1009.37
2022-12-11T02:01:56.669Z,1009.32
2022-12-11T02:02:56.648Z,1009.31
2022-12-11T02:03:56.661Z,1009.28
2022-12-11T02:04:56.628Z,1009.31
2022-12-11T02:05:56.603Z,1009.29
2022-12-11T02:06:56.562Z,1009.21
2022-12-11T02:07:56.603Z,1009.26
2022-12-11T02:08:56.561Z,1009.26
2022-12-11T02:09:56.560Z,1009.27
2022-12-11T02:10:56.557Z,1009.30
2022-12-11T02:11:56.568Z,1009.29
2022-12-11T02:12:56.493Z,1009.27
2022-12-11T02:13:56.541Z,1009.37
2022-12-11T02:14:56.528Z,1009.24
2022-12-11T02:15:56.605Z,1009.26
2022-12-11T02:16:56.466Z,1009.27
2022-12-11T02:17:56.456Z,1009.31
2022-12-11T02:18:56.429Z,1009.22
2022-12-11T02:19:56.418Z,1009.30
2022-12-11T02:20:57.113Z,1009.24
2022-12-11T02:21:56.414Z,1009.26
2022-12-11T02:22:56.413Z,1009.32
2022-12-11T02:23:56.378Z,1009.29
2022-12-11T02:24:56.347Z,1009.28
2022-12-11T02:25:56.362Z,1009.20
2022-12-11T02:26:56.342Z,1009.20
2022-12-11T02:27:56.317Z,1009.15
2022-12-11T02:28:56.346Z,1009.17
2022-12-11T02:29:56.284Z,1009.20
2022-12-11T02:30:56.274Z,1009.26
2022-12-11T02:31:56.291Z,1009.21
2022-12-11T02:32:56.272Z,1009.20
2022-12-11T02:33:56.299Z,1009.17
2022-12-11T02:34:56.259Z,1009.16
2022-12-11T02:35:56.227Z,1009.18
2022-12-11T02:36:56.219Z,1009.17
2022-12-11T02:37:56.191Z,1009.22
2022-12-11T02:38:56.160Z,1009.17
2022-12-11T02:39:56.212Z,1009.19
2022-12-11T02:40:56.185Z,1009.23
2022-12-11T02:41:56.140Z,1009.16
2022-12-11T02:42:56.245Z,1009.15
2022-12-11T02:43:56.114Z,1009.16
2022-12-11T02:44:56.138Z,1009.17
2022-12-11T02:45:56.106Z,1009.20
2022-12-11T02:46:56.062Z,1009.12
2022-12-11T02:47:56.107Z,1009.19
2022-12-11T02:48:56.031Z,1009.11
2022-12-11T02:49:56.087Z,1009.21
2022-12-11T02:50:56.041Z,1009.14
2022-12-11T02:51:56.049Z,1009.17
2022-12-11T02:52:55.999Z,1009.15
2022-12-11T02:53:56.016Z,1009.15
2022-12-11T02:54:55.995Z,1009.16
2022-12-11T02:55:55.978Z,1009.16
2022-12-11T02:56:55.968Z,1009.17
2022-12-11T02:57:55.935Z,1009.10
2022-12-11T02:58:58.687Z,1009.10
2022-12-11T02:59:55.964Z,1009.05
2022-12-11T03:00:56.017Z,1009.03
2022-12-11T03:01:55.906Z,1009.07
2022-12-11T03:02:55.871Z,1009.03
2022-12-11T03:03:55.893Z,1009.07
2022-12-11T03:04:55.914Z,1009.04
2022-12-11T03:05:55.860Z,1009.04
2022-12-11T03:06:55.841Z,1009.04
2022-12-11T03:07:55.874Z,1009.02
2022-12-11T03:08:55.775Z,1009.03
2022-12-11T03:09:55.883Z,1009.08
2022-12-11T03:10:55.752Z,1009.02
2022-12-11T03:11:55.783Z,1009.04
2022-12-11T03:12:55.771Z,1009.06
2022-12-11T03:13:55.742Z,1009.03
2022-12-11T03:14:55.704Z,1009.06
2022-12-11T03:15:55.794Z,1009.02
2022-12-11T03:16:55.724Z,1009.07
2022-12-11T03:17:55.725Z,1009.06
2022-12-11T03:18:55.678Z,1009.04
2022-12-11T03:19:55.689Z,1009.08
2022-12-11T03:20:55.652Z,1009.05
2022-12-11T03:21:55.658Z,1009.05
2022-12-11T03:22:55.611Z,1009.06
2022-12-11T03:23:55.600Z,1009.09
2022-12-11T03:24:55.604Z,1009.10
2022-12-11T03:25:55.614Z,1009.09
2022-12-11T03:26:56.858Z,1009.09
2022-12-11T03:27:55.572Z,1009.09
2022-12-11T03:28:55.564Z,1009.07
2022-12-11T03:29:55.545Z,1009.13
2022-12-11T03:30:55.585Z,1009.15
2022-12-11T03:31:55.490Z,1009.16
2022-12-11T03:32:55.488Z,1009.07
2022-12-11T03:33:55.472Z,1009.12
2022-12-11T03:34:58.301Z,1009.11
2022-12-11T03:35:55.453Z,1009.16
2022-12-11T03:36:55.446Z,1009.12
2022-12-11T03:37:55.428Z,1009.15
2022-12-11T03:38:55.419Z,1009.15
2022-12-11T03:39:55.463Z,1009.15
2022-12-11T03:40:55.409Z,1009.16
2022-12-11T03:41:55.365Z,1009.17
2022-12-11T03:42:55.480Z,1009.24
2022-12-11T03:43:55.362Z,1009.17
2022-12-11T03:44:55.400Z,1009.17
2022-12-11T03:45:55.386Z,1009.25
2022-12-11T03:46:55.405Z,1009.22
2022-12-11T03:47:55.330Z,1009.20
2022-12-11T03:48:55.312Z,1009.17
2022-12-11T03:49:55.303Z,1009.15
2022-12-11T03:50:55.288Z,1009.12
2022-12-11T03:51:55.269Z,1009.11
2022-12-11T03:52:55.247Z,1009.11
2022-12-11T03:53:55.253Z,1009.10
2022-12-11T03:54:55.249Z,1009.09
2022-12-11T03:55:55.224Z,1009.16
2022-12-11T03:56:55.200Z,1009.13
2022-12-11T03:57:55.173Z,1009.10
2022-12-11T03:58:55.206Z,1009.12
2022-12-11T03:59:55.160Z,1009.16
2022-12-11T04:00:55.132Z,1009.09
2022-12-11T04:01:55.174Z,1009.04
2022-12-11T04:02:55.123Z,1009.09
2022-12-11T04:03:55.131Z,1009.12
2022-12-11T04:04:55.097Z,1009.10
2022-12-11T04:05:55.061Z,1009.07
2022-12-11T04:06:55.083Z,1009.12
2022-12-11T04:07:55.073Z,1009.09
2022-12-11T04:08:55.030Z,1009.11
2022-12-11T04:09:55.066Z,1009.03
2022-12-11T04:10:55.017Z,1009.01
2022-12-11T04:11:55.929Z,1009.00
2022-12-11T04:12:55.061Z,1009.01
2022-12-11T04:13:54.956Z,1009.02
2022-12-11T04:14:54.991Z,1008.95
2022-12-11T04:15:55.002Z,1008.91
2022-12-11T04:16:54.953Z,1008.90
2022-12-11T04:17:54.963Z,1008.99
2022-12-11T04:18:54.905Z,1008.91
2022-12-11T04:19:54.890Z,1008.93
2022-12-11T04:20:54.885Z,1008.90
2022-12-11T04:21:54.858Z,1008.94
2022-12-11T04:22:54.896Z,1008.88
2022-12-11T04:23:54.882Z,1008.89
2022-12-11T04:24:54.861Z,1008.85
2022-12-11T04:25:54.834Z,1008.86
2022-12-11T04:26:54.805Z,1008.85
2022-12-11T04:27:55.749Z,1008.82
2022-12-11T04:28:54.831Z,1008.80
2022-12-11T04:29:54.752Z,1008.80
2022-12-11T04:30:54.832Z,1008.81
2022-12-11T04:31:54.723Z,1008.81
2022-12-11T04:32:54.750Z,1008.87
2022-12-11T04:33:55.642Z,1008.85
2022-12-11T04:34:55.573Z,1008.90
2022-12-11T04:35:54.689Z,1008.86
2022-12-11T04:36:54.703Z,1008.85
2022-12-11T04:37:54.885Z,1008.87
2022-12-11T04:38:54.650Z,1008.90
2022-12-11T04:39:54.702Z,1008.86
2022-12-11T04:40:54.631Z,1008.82
2022-12-11T04:41:54.614Z,1008.84
2022-12-11T04:42:54.599Z,1008.88
2022-12-11T04:43:54.632Z,1008.85
2022-12-11T04:44:54.599Z,1008.73
2022-12-11T04:45:54.585Z,1008.74
2022-12-11T04:46:54.600Z,1008.83
2022-12-11T04:47:54.528Z,1008.79
2022-12-11T04:48:57.604Z,1008.82
2022-12-11T04:49:54.509Z,1008.86
2022-12-11T04:50:54.505Z,1008.85
2022-12-11T04:51:54.504Z,1008.76
2022-12-11T04:52:54.504Z,1008.74
2022-12-11T04:53:54.534Z,1008.81
2022-12-11T04:54:54.470Z,1008.76
2022-12-11T04:55:54.475Z,1008.69
2022-12-11T04:56:54.427Z,1008.80
2022-12-11T04:57:54.410Z,1008.70
2022-12-11T04:58:54.406Z,1008.72
2022-12-11T04:59:54.366Z,1008.76
2022-12-11T05:00:54.486Z,1008.73
2022-12-11T05:01:54.401Z,1008.72
2022-12-11T05:02:54.432Z,1008.68
2022-12-11T05:03:54.362Z,1008.73
2022-12-11T05:04:54.373Z,1008.72
2022-12-11T05:05:54.359Z,1008.66
2022-12-11T05:06:54.340Z,1008.72
2022-12-11T05:07:54.317Z,1008.71
2022-12-11T05:08:54.285Z,1008.69
2022-12-11T05:09:54.247Z,1008.69
2022-12-11T05:10:54.279Z,1008.71
2022-12-11T05:11:54.269Z,1008.74
2022-12-11T05:12:54.222Z,1008.77
2022-12-11T05:13:54.239Z,1008.69
2022-12-11T05:14:54.192Z,1008.70
2022-12-11T05:15:54.260Z,1008.68
2022-12-11T05:16:54.223Z,1008.69
2022-12-11T05:17:54.163Z,1008.66
2022-12-11T05:18:54.159Z,1008.67
2022-12-11T05:19:54.125Z,1008.65
2022-12-11T05:20:54.147Z,1008.69
2022-12-11T05:21:54.111Z,1008.72
2022-12-11T05:22:54.845Z,1008.72
2022-12-11T05:23:54.259Z,1008.73
2022-12-11T05:24:54.096Z,1008.71
2022-12-11T05:25:54.038Z,1008.74
2022-12-11T05:26:54.088Z,1008.72
2022-12-11T05:27:54.805Z,1008.70
2022-12-11T05:28:54.035Z,1008.68
2022-12-11T05:29:59.203Z,1008.68
2022-12-11T05:30:55.051Z,1008.67
2022-12-11T05:31:54.918Z,1008.67
2022-12-11T05:32:54.003Z,1008.64
2022-12-11T05:33:53.997Z,1008.68
2022-12-11T05:34:53.970Z,1008.66
2022-12-11T05:35:53.960Z,1008.66
2022-12-11T05:36:53.942Z,1008.64
2022-12-11T05:37:53.984Z,1008.59
2022-12-11T05:38:53.896Z,1008.63
2022-12-11T05:39:54.805Z,1008.56
2022-12-11T05:40:53.898Z,1008.61
2022-12-11T05:41:53.885Z,1008.60
2022-12-11T05:42:53.884Z,1008.61
2022-12-11T05:43:53.804Z,1008.61
2022-12-11T05:44:53.816Z,1008.57
2022-12-11T05:45:54.540Z,1008.57
2022-12-11T05:47:04.946Z,1008.57
2022-12-11T05:47:53.809Z,1008.63
2022-12-11T05:48:54.843Z,1008.58
2022-12-11T05:49:53.781Z,1008.60
2022-12-11T05:50:53.770Z,1008.56
2022-12-11T05:51:53.762Z,1008.55
2022-12-11T05:52:53.719Z,1008.55
2022-12-11T05:53:53.858Z,1008.55
2022-12-11T05:54:53.768Z,1008.52
2022-12-11T05:55:53.687Z,1008.51
2022-12-11T05:56:53.691Z,1008.53
2022-12-11T05:57:53.663Z,1008.54
2022-12-11T05:58:53.669Z,1008.61
2022-12-11T05:59:53.663Z,1008.57
2022-12-11T06:00:53.626Z,1008.49
2022-12-11T06:01:53.717Z,1008.52
2022-12-11T06:02:53.869Z,1008.51
2022-12-11T06:03:53.666Z,1008.48
2022-12-11T06:04:53.602Z,1008.56
2022-12-11T06:05:53.731Z,1008.56
2022-12-11T06:06:53.579Z,1008.55
2022-12-11T06:07:53.647Z,1008.57
2022-12-11T06:08:53.544Z,1008.51
2022-12-11T06:09:53.640Z,1008.62
2022-12-11T06:10:53.554Z,1008.51
2022-12-11T06:11:53.503Z,1008.54
2022-12-11T06:12:53.542Z,1008.58
2022-12-11T06:13:53.453Z,1008.55
2022-12-11T06:14:53.502Z,1008.54
2022-12-11T06:15:53.480Z,1008.48
2022-12-11T06:16:53.500Z,1008.54
2022-12-11T06:17:53.424Z,1008.51
2022-12-11T06:18:57.878Z,1008.48
2022-12-11T06:19:53.401Z,1008.48
2022-12-11T06:20:53.488Z,1008.47
2022-12-11T06:21:53.378Z,1008.48
2022-12-11T06:22:53.360Z,1008.48
2022-12-11T06:23:53.345Z,1008.47
2022-12-11T06:24:53.364Z,1008.43
2022-12-11T06:25:53.330Z,1008.47
2022-12-11T06:26:53.385Z,1008.42
2022-12-11T06:27:53.279Z,1008.43
2022-12-11T06:28:53.299Z,1008.39
2022-12-11T06:29:53.289Z,1008.48
2022-12-11T06:30:53.310Z,1008.38
2022-12-11T06:31:53.342Z,1008.46
2022-12-11T06:32:53.299Z,1008.46
2022-12-11T06:33:53.208Z,1008.46
2022-12-11T06:34:53.192Z,1008.50
2022-12-11T06:35:53.225Z,1008.50
2022-12-11T06:36:53.203Z,1008.50
2022-12-11T06:37:53.168Z,1008.50
2022-12-11T06:38:53.336Z,1008.55
2022-12-11T06:39:53.172Z,1008.51
2022-12-11T06:40:53.161Z,1008.56
2022-12-11T06:41:53.133Z,1008.48
2022-12-11T06:42:53.106Z,1008.60
2022-12-11T06:43:53.268Z,1008.51
2022-12-11T06:44:53.132Z,1008.52
2022-12-11T06:45:53.134Z,1008.50
2022-12-11T06:46:53.136Z,1008.50
2022-12-11T06:47:53.131Z,1008.47
2022-12-11T06:48:53.033Z,1008.53
2022-12-11T06:49:53.010Z,1008.53
2022-12-11T06:50:53.050Z,1008.54
2022-12-11T06:51:53.031Z,1008.50
2022-12-11T06:52:53.060Z,1008.57
2022-12-11T06:53:52.957Z,1008.52
2022-12-11T06:54:52.924Z,1008.48
2022-12-11T06:55:52.949Z,1008.54
2022-12-11T06:56:52.968Z,1008.56
2022-12-11T06:57:52.903Z,1008.57
2022-12-11T06:58:52.928Z,1008.57
2022-12-11T06:59:52.919Z,1008.62
2022-12-11T07:00:52.990Z,1008.54
2022-12-11T07:01:52.993Z,1008.60
2022-12-11T07:02:52.881Z,1008.56
2022-12-11T07:03:52.839Z,1008.58
2022-12-11T07:04:55.212Z,1008.56
2022-12-11T07:05:52.807Z,1008.64
2022-12-11T07:06:52.843Z,1008.65
2022-12-11T07:07:52.839Z,1008.64
2022-12-11T07:08:52.796Z,1008.60
2022-12-11T07:09:52.772Z,1008.60
2022-12-11T07:10:52.773Z,1008.63
2022-12-11T07:11:52.745Z,1008.61
2022-12-11T07:12:52.759Z,1008.61
2022-12-11T07:13:52.748Z,1008.60
2022-12-11T07:14:52.717Z,1008.63
2022-12-11T07:15:52.768Z,1008.62
2022-12-11T07:16:52.764Z,1008.74
2022-12-11T07:17:52.677Z,1008.69
2022-12-11T07:18:52.661Z,1008.71
2022-12-11T07:19:52.657Z,1008.65
2022-12-11T07:20:52.615Z,1008.73
2022-12-11T07:21:52.629Z,1008.77
2022-12-11T07:22:52.585Z,1008.74
2022-12-11T07:23:52.664Z,1008.74
2022-12-11T07:24:53.607Z,1008.67
2022-12-11T07:25:52.581Z,1008.74
2022-12-11T07:26:52.583Z,1008.74
2022-12-11T07:27:52.506Z,1008.76
2022-12-11T07:28:52.544Z,1008.77
2022-12-11T07:29:52.511Z,1008.66
2022-12-11T07:30:52.483Z,1008.71
2022-12-11T07:31:52.495Z,1008.70
2022-12-11T07:32:53.118Z,1008.76
2022-12-11T07:33:52.476Z,1008.67
2022-12-11T07:34:52.467Z,1008.73
2022-12-11T07:35:52.453Z,1008.76
2022-12-11T07:36:52.438Z,1008.71
2022-12-11T07:37:52.411Z,1008.67
2022-12-11T07:38:52.403Z,1008.77
2022-12-11T07:39:52.381Z,1008.80
2022-12-11T07:40:52.387Z,1008.78
2022-12-11T07:41:52.385Z,1008.82
2022-12-11T07:42:52.348Z,1008.72
2022-12-11T07:43:52.322Z,1008.74
2022-12-11T07:44:52.350Z,1008.74
2022-12-11T07:45:52.730Z,1008.69
2022-12-11T07:46:52.336Z,1008.68
2022-12-11T07:47:52.306Z,1008.73
2022-12-11T07:48:52.315Z,1008.67
2022-12-11T07:49:52.268Z,1008.72
2022-12-11T07:50:52.240Z,1008.65
2022-12-11T07:51:52.238Z,1008.68
2022-12-11T07:52:52.198Z,1008.65
2022-12-11T07:53:52.253Z,1008.65
2022-12-11T07:54:52.169Z,1008.64
2022-12-11T07:55:52.187Z,1008.63
2022-12-11T07:56:53.914Z,1008.67
2022-12-11T07:57:52.193Z,1008.66
2022-12-11T07:58:52.143Z,1008.63
2022-12-11T07:59:52.172Z,1008.61
2022-12-11T08:00:52.171Z,1008.55
2022-12-11T08:01:52.144Z,1008.59
2022-12-11T08:02:52.146Z,1008.59
2022-12-11T08:03:52.102Z,1008.64
2022-12-11T08:04:52.062Z,1008.66
2022-12-11T08:05:52.165Z,1008.59
2022-12-11T08:06:52.014Z,1008.60
2022-12-11T08:07:52.183Z,1008.66
2022-12-11T08:08:52.030Z,1008.57
2022-12-11T08:09:52.020Z,1008.60
2022-12-11T08:10:51.982Z,1008.63
2022-12-11T08:11:52.053Z,1008.59
2022-12-11T08:12:51.991Z,1008.61
2022-12-11T08:13:52.005Z,1008.56
2022-12-11T08:14:51.912Z,1008.61
2022-12-11T08:15:54.631Z,1008.66
2022-12-11T08:16:51.936Z,1008.67
2022-12-11T08:17:51.936Z,1008.64
2022-12-11T08:18:51.898Z,1008.66
2022-12-11T08:19:51.861Z,1008.68
2022-12-11T08:20:51.917Z,1008.65
2022-12-11T08:21:51.855Z,1008.61
2022-12-11T08:22:56.043Z,1008.64
2022-12-11T08:23:52.885Z,1008.64
2022-12-11T08:24:51.789Z,1008.66
2022-12-11T08:25:51.783Z,1008.71
2022-12-11T08:26:51.824Z,1008.63
2022-12-11T08:27:51.765Z,1008.64
2022-12-11T08:28:51.779Z,1008.68
2022-12-11T08:29:51.736Z,1008.68
2022-12-11T08:30:51.831Z,1008.68
2022-12-11T08:31:51.754Z,1008.64
2022-12-11T08:32:51.713Z,1008.62
2022-12-11T08:33:51.720Z,1008.62
2022-12-11T08:34:51.693Z,1008.62
2022-12-11T08:35:51.666Z,1008.64
2022-12-11T08:36:51.790Z,1008.62
2022-12-11T08:37:51.635Z,1008.59
2022-12-11T08:38:51.681Z,1008.62
2022-12-11T08:39:51.616Z,1008.59
2022-12-11T08:40:51.632Z,1008.57
2022-12-11T08:41:51.635Z,1008.57
2022-12-11T08:42:51.601Z,1008.62
2022-12-11T08:43:51.615Z,1008.60
2022-12-11T08:44:51.657Z,1008.59
2022-12-11T08:45:51.650Z,1008.60
2022-12-11T08:46:51.571Z,1008.60
2022-12-11T08:47:51.586Z,1008.60
2022-12-11T08:48:51.504Z,1008.62
2022-12-11T08:49:51.512Z,1008.64
2022-12-11T08:50:51.508Z,1008.60
2022-12-11T08:51:51.516Z,1008.65
2022-12-11T08:52:51.497Z,1008.61
2022-12-11T08:53:51.473Z,1008.66
2022-12-11T08:54:51.439Z,1008.59
2022-12-11T08:55:51.431Z,1008.54
2022-12-11T08:56:57.604Z,1008.58
2022-12-11T08:57:52.435Z,1008.61
2022-12-11T08:58:51.367Z,1008.56
2022-12-11T08:59:51.391Z,1008.53
2022-12-11T09:00:51.363Z,1008.56
2022-12-11T09:01:51.424Z,1008.57
2022-12-11T09:02:51.526Z,1008.51
2022-12-11T09:03:51.319Z,1008.55
2022-12-11T09:04:51.305Z,1008.52
2022-12-11T09:05:51.288Z,1008.61
2022-12-11T09:06:51.278Z,1008.58
2022-12-11T09:07:51.375Z,1008.58
2022-12-11T09:08:52.997Z,1008.58
2022-12-11T09:09:51.266Z,1008.62
2022-12-11T09:10:51.215Z,1008.64
2022-12-11T09:11:51.211Z,1008.59
2022-12-11T09:12:51.206Z,1008.63
2022-12-11T09:13:51.177Z,1008.62
2022-12-11T09:14:51.156Z,1008.63
2022-12-11T09:15:51.209Z,1008.60
2022-12-11T09:16:51.133Z,1008.58
2022-12-11T09:17:51.156Z,1008.59
2022-12-11T09:18:51.132Z,1008.62
2022-12-11T09:19:51.190Z,1008.63
2022-12-11T09:20:51.085Z,1008.64
2022-12-11T09:21:51.268Z,1008.66
2022-12-11T09:22:51.321Z,1008.63
2022-12-11T09:23:51.374Z,1008.63
2022-12-11T09:24:53.490Z,1008.70
2022-12-11T09:27:01.643Z,1008.66
2022-12-11T09:28:01.642Z,1008.68
2022-12-11T09:29:04.662Z,1008.67
2022-12-11T09:30:01.109Z,1008.66
2022-12-11T09:31:01.529Z,1008.72
2022-12-11T09:32:00.954Z,1008.64
2022-12-11T09:33:25.450Z,1008.62
2022-12-11T09:34:02.949Z,1008.60
2022-12-11T09:35:00.553Z,1008.66
2022-12-11T09:36:00.710Z,1008.65
2022-12-11T09:37:02.203Z,1008.60
2022-12-11T09:38:08.903Z,1008.67
2022-12-11T09:39:29.909Z,1008.68
2022-12-11T09:40:07.629Z,1008.55
2022-12-11T09:41:00.754Z,1008.61
2022-12-11T09:42:00.583Z,1008.60
2022-12-11T09:43:01.910Z,1008.61
2022-12-11T09:45:11.948Z,1008.63
2022-12-11T09:46:38.619Z,1008.57
2022-12-11T09:47:22.618Z,1008.57
2022-12-11T09:48:34.658Z,1008.67
2022-12-11T09:49:11.593Z,1008.68
2022-12-11T09:50:13.532Z,1008.60
2022-12-11T09:51:27.962Z,1008.63
2022-12-11T09:52:12.241Z,1008.57
2022-12-11T09:53:15.840Z,1008.60
2022-12-11T09:54:12.531Z,1008.61
2022-12-11T09:55:38.197Z,1008.59
2022-12-11T09:56:41.895Z,1008.54
2022-12-11T09:57:11.561Z,1008.59
2022-12-11T09:59:34.915Z,1008.57
2022-12-11T10:00:35.952Z,1008.56
2022-12-11T10:02:47.688Z,1008.59
2022-12-11T10:03:48.751Z,1008.57
2022-12-11T10:04:51.668Z,1008.54
2022-12-11T10:05:50.105Z,1008.58
2022-12-11T10:07:58.219Z,1008.49
2022-12-11T10:08:58.121Z,1008.53
2022-12-11T10:09:58.138Z,1008.55
2022-12-11T10:11:01.643Z,1008.49
2022-12-11T10:11:59.374Z,1008.51
2022-12-11T10:13:00.444Z,1008.45
2022-12-11T10:13:58.347Z,1008.45
2022-12-11T10:14:58.985Z,1008.49
2022-12-11T10:16:01.500Z,1008.44
2022-12-11T10:17:01.000Z,1008.44
2022-12-11T10:18:05.309Z,1008.51
2022-12-11T10:20:08.942Z,1008.48
2022-12-11T10:21:33.125Z,1008.47
2022-12-11T10:22:09.388Z,1008.36
2022-12-11T10:27:27.985Z,1008.38
2022-12-11T10:28:28.827Z,1008.34
2022-12-11T10:29:50.004Z,1008.35
2022-12-11T10:30:34.368Z,1008.33
2022-12-11T10:31:29.019Z,1008.33
2022-12-11T10:33:03.827Z,1008.26
2022-12-11T10:35:30.389Z,1008.26
2022-12-11T10:36:01.270Z,1008.24
2022-12-11T10:37:01.614Z,1008.24
2022-12-11T10:38:01.162Z,1008.19
2022-12-11T10:39:01.160Z,1008.19
2022-12-11T10:40:01.105Z,1008.15
2022-12-11T10:41:08.313Z,1008.14
2022-12-11T10:42:01.148Z,1008.22
2022-12-11T10:43:01.063Z,1008.18
2022-12-11T10:44:01.126Z,1008.16
2022-12-11T10:45:01.063Z,1008.13
2022-12-11T10:46:01.185Z,1008.11
2022-12-11T10:47:01.020Z,1008.12
2022-12-11T10:48:01.051Z,1008.14
2022-12-11T10:49:01.036Z,1008.13
2022-12-11T10:50:00.972Z,1008.14
2022-12-11T10:51:00.976Z,1008.13
2022-12-11T10:52:00.985Z,1008.09
2022-12-11T10:53:01.013Z,1008.10
2022-12-11T10:54:05.671Z,1008.07
2022-12-11T10:55:01.920Z,1008.04
2022-12-11T10:56:00.899Z,1007.98
2022-12-11T10:57:00.894Z,1008.00
2022-12-11T10:58:00.949Z,1008.03
2022-12-11T10:59:00.933Z,1008.00
2022-12-11T11:00:05.122Z,1007.99
2022-12-11T11:01:08.892Z,1007.97
2022-12-11T11:02:01.638Z,1007.98
2022-12-11T11:03:02.094Z,1007.97
2022-12-11T11:04:00.900Z,1007.91
2022-12-11T11:05:00.936Z,1007.91
2022-12-11T11:06:01.215Z,1007.93
2022-12-11T11:07:00.765Z,1007.98
2022-12-11T11:08:01.858Z,1007.93
2022-12-11T11:09:00.722Z,1007.89
2022-12-11T11:10:00.715Z,1007.91
2022-12-11T11:11:00.713Z,1007.96
2022-12-11T11:12:08.120Z,1007.94
2022-12-11T11:13:00.654Z,1007.89
2022-12-11T11:14:00.699Z,1007.91
2022-12-11T11:15:00.661Z,1007.95
2022-12-11T11:16:00.714Z,1007.91
2022-12-11T11:17:01.353Z,1007.92
2022-12-11T11:18:00.613Z,1007.90
2022-12-11T11:19:00.613Z,1007.99
2022-12-11T11:20:00.659Z,1007.96
2022-12-11T11:21:00.554Z,1007.93
2022-12-11T11:22:00.584Z,1007.91
2022-12-11T11:23:00.582Z,1007.90
2022-12-11T11:24:00.605Z,1007.95
2022-12-11T11:25:00.517Z,1007.92
2022-12-11T11:26:00.520Z,1007.84
2022-12-11T11:27:15.713Z,1007.94
2022-12-11T11:28:01.482Z,1007.86
2022-12-11T11:29:00.524Z,1007.92
2022-12-11T11:30:00.495Z,1007.90
2022-12-11T11:31:00.593Z,1007.89
2022-12-11T11:32:00.578Z,1007.94
2022-12-11T11:33:01.766Z,1007.89
2022-12-11T11:34:00.731Z,1007.83
2022-12-11T11:35:00.594Z,1007.90
2022-12-11T11:36:02.798Z,1007.87
2022-12-11T11:37:00.488Z,1007.79
2022-12-11T11:38:00.429Z,1007.74
2022-12-11T11:39:09.902Z,1007.71
2022-12-11T11:40:00.362Z,1007.78
2022-12-11T11:41:05.603Z,1007.72
2022-12-11T11:42:01.303Z,1007.78
2022-12-11T11:43:00.339Z,1007.67
2022-12-11T11:44:00.336Z,1007.73
2022-12-11T11:45:01.088Z,1007.69
2022-12-11T11:46:00.260Z,1007.69
2022-12-11T11:47:07.879Z,1007.71
2022-12-11T11:48:00.262Z,1007.67
2022-12-11T11:49:00.317Z,1007.72
2022-12-11T11:50:00.315Z,1007.62
2022-12-11T11:51:01.249Z,1007.73
2022-12-11T11:52:00.185Z,1007.64
2022-12-11T11:53:08.559Z,1007.69
2022-12-11T11:54:00.242Z,1007.74
2022-12-11T11:55:00.183Z,1007.64
2022-12-11T11:56:01.034Z,1007.62
2022-12-11T11:57:00.175Z,1007.67
2022-12-11T11:58:00.124Z,1007.64
2022-12-11T11:59:00.115Z,1007.66
2022-12-11T12:00:00.169Z,1007.58
2022-12-11T12:01:07.736Z,1007.65
2022-12-11T12:02:00.065Z,1007.61
2022-12-11T12:03:00.153Z,1007.64
2022-12-11T12:04:00.103Z,1007.69
2022-12-11T12:05:00.043Z,1007.65
2022-12-11T12:06:00.014Z,1007.61
2022-12-11T12:06:59.985Z,1007.62
2022-12-11T12:08:00.080Z,1007.65
2022-12-11T12:09:00.022Z,1007.65
2022-12-11T12:10:00.120Z,1007.64
2022-12-11T12:11:00.008Z,1007.64
2022-12-11T12:12:00.930Z,1007.59
2022-12-11T12:12:59.922Z,1007.64
2022-12-11T12:14:00.028Z,1007.63
2022-12-11T12:14:59.943Z,1007.66
2022-12-11T12:15:59.950Z,1007.59
2022-12-11T12:17:00.177Z,1007.63
2022-12-11T12:18:00.927Z,1007.58
2022-12-11T12:19:13.559Z,1007.55